createdAt,value
2022-08-17T00:01:31.396Z,72.99
2022-08-17T00:04:19.036Z,72.80
2022-08-17T00:06:46.077Z,72.56
2022-08-17T00:09:19.026Z,72.75
2022-08-17T00:12:34.845Z,73.40
2022-08-17T00:14:35.008Z,73.21
2022-08-17T00:17:03.714Z,72.80
2022-08-17T00:19:30.381Z,73.44
2022-08-17T00:22:33.882Z,73.20
2022-08-17T00:24:47.273Z,73.28
2022-08-17T00:27:13.829Z,73.51
2022-08-17T00:29:40.539Z,73.90
2022-08-17T00:33:12.434Z,74.33
2022-08-17T00:34:53.814Z,74.24
2022-08-17T00:37:20.396Z,73.78
2022-08-17T00:39:46.933Z,74.99
2022-08-17T00:42:18.956Z,75.00
2022-08-17T00:44:46.177Z,75.10
2022-08-17T00:47:12.713Z,74.94
2022-08-17T00:49:39.569Z,74.78
2022-08-17T00:52:15.524Z,75.07
2022-08-17T00:54:44.876Z,75.34
2022-08-17T00:57:34.424Z,76.79
2022-08-17T01:00:08.940Z,76.19
2022-08-17T01:02:41.762Z,75.68
2022-08-17T01:05:16.362Z,75.57
2022-08-17T01:07:47.545Z,74.97
2022-08-17T01:10:58.269Z,74.15
2022-08-17T01:13:02.747Z,74.09
2022-08-17T01:15:36.165Z,75.94
2022-08-17T01:18:05.392Z,79.36
2022-08-17T01:20:32.503Z,78.42
2022-08-17T01:23:18.479Z,77.59
2022-08-17T01:25:54.192Z,77.04
2022-08-17T01:28:52.832Z,79.00
2022-08-17T01:31:09.708Z,80.30
2022-08-17T01:33:36.680Z,80.18
2022-08-17T01:36:04.987Z,79.83
2022-08-17T01:38:31.910Z,80.36
2022-08-17T01:41:03.200Z,80.50
2022-08-17T01:43:43.565Z,82.06
2022-08-17T01:46:16.826Z,81.12
2022-08-17T01:48:47.255Z,80.57
2022-08-17T01:51:15.510Z,79.73
2022-08-17T01:53:47.303Z,79.29
2022-08-17T01:56:18.245Z,79.61
2022-08-17T01:58:45.779Z,79.20
2022-08-17T02:01:14.760Z,78.87
2022-08-17T02:03:41.987Z,78.72
2022-08-17T02:06:27.690Z,78.12
2022-08-17T02:09:03.153Z,79.53
2022-08-17T02:11:32.388Z,78.06
2022-08-17T02:14:03.202Z,78.48
2022-08-17T02:16:37.564Z,78.23
2022-08-17T02:19:07.794Z,78.40
2022-08-17T02:21:36.120Z,78.99
2022-08-17T02:24:03.706Z,79.02
2022-08-17T02:26:30.162Z,79.54
2022-08-17T02:28:56.861Z,79.59
2022-08-17T02:31:23.419Z,79.60
2022-08-17T02:34:00.361Z,79.59
2022-08-17T02:36:34.440Z,79.65
2022-08-17T02:39:04.967Z,79.54
2022-08-17T02:41:31.491Z,79.57
2022-08-17T02:43:58.657Z,79.44
2022-08-17T02:46:25.532Z,79.72
2022-08-17T02:48:52.054Z,79.41
2022-08-17T02:51:18.714Z,78.88
2022-08-17T02:53:45.163Z,78.36
2022-08-17T02:56:11.656Z,78.24
2022-08-17T02:58:38.269Z,78.64
2022-08-17T03:01:07.474Z,78.96
2022-08-17T03:03:35.167Z,79.10
2022-08-17T03:06:02.105Z,79.66
2022-08-17T03:08:29.124Z,79.28
2022-08-17T03:10:56.431Z,79.65
2022-08-17T03:13:23.445Z,79.63
2022-08-17T03:15:50.636Z,79.77
2022-08-17T03:18:24.547Z,78.99
2022-08-17T03:20:57.244Z,79.67
2022-08-17T03:23:25.444Z,80.09
2022-08-17T03:25:53.962Z,80.66
2022-08-17T03:28:21.641Z,80.97
2022-08-17T03:30:48.563Z,81.06
2022-08-17T03:33:16.846Z,80.54
2022-08-17T03:35:43.554Z,81.41
2022-08-17T03:38:11.876Z,80.87
2022-08-17T03:40:56.259Z,80.95
2022-08-17T03:43:25.164Z,82.46
2022-08-17T03:46:27.312Z,82.57
2022-08-17T03:49:14.439Z,82.45
2022-08-17T03:51:59.400Z,83.09
2022-08-17T03:54:44.314Z,82.62
2022-08-17T03:57:12.510Z,83.16
2022-08-17T03:59:39.336Z,83.45
2022-08-17T04:02:11.394Z,83.16
2022-08-17T04:04:39.274Z,82.09
2022-08-17T04:07:06.917Z,82.76
2022-08-17T04:09:33.992Z,83.12
2022-08-17T04:12:02.325Z,83.06
2022-08-17T04:14:52.000Z,82.78
2022-08-17T04:17:26.199Z,82.19
2022-08-17T04:19:53.796Z,81.86
2022-08-17T04:22:32.375Z,82.20
2022-08-17T04:25:03.522Z,82.59
2022-08-17T04:27:30.040Z,82.54
2022-08-17T04:29:56.525Z,82.17
2022-08-17T04:32:59.294Z,82.47
2022-08-17T04:35:10.002Z,82.70
2022-08-17T04:37:36.590Z,82.59
2022-08-17T04:40:39.214Z,84.44
2022-08-17T04:43:18.840Z,84.52
2022-08-17T04:46:00.331Z,84.26
2022-08-17T04:48:36.499Z,83.16
2022-08-17T04:51:20.482Z,82.89
2022-08-17T04:53:54.062Z,83.57
2022-08-17T04:56:22.235Z,84.38
2022-08-17T04:58:50.819Z,83.49
2022-08-17T05:01:23.290Z,82.80
2022-08-17T05:03:52.150Z,83.78
2022-08-17T05:06:18.673Z,83.77
2022-08-17T05:08:45.215Z,84.22
2022-08-17T05:11:11.765Z,84.33
2022-08-17T05:13:38.314Z,84.28
2022-08-17T05:16:05.638Z,84.05
2022-08-17T05:18:32.647Z,83.80
2022-08-17T05:20:59.401Z,83.43
2022-08-17T05:23:42.098Z,83.13
2022-08-17T05:26:15.255Z,82.95
2022-08-17T05:28:54.993Z,83.16
2022-08-17T05:31:24.329Z,82.71
2022-08-17T05:33:50.926Z,81.83
2022-08-17T05:36:41.565Z,81.33
2022-08-17T05:39:04.241Z,81.40
2022-08-17T05:41:30.712Z,81.31
2022-08-17T05:43:57.272Z,81.16
2022-08-17T05:46:27.487Z,80.32
2022-08-17T05:49:02.318Z,79.57
2022-08-17T05:51:31.793Z,80.16
2022-08-17T05:54:08.291Z,79.19
2022-08-17T05:56:43.939Z,78.73
2022-08-17T05:59:22.774Z,77.73
2022-08-17T06:02:02.815Z,78.27
2022-08-17T06:04:52.796Z,78.29
2022-08-17T06:07:31.778Z,76.75
2022-08-17T06:10:19.569Z,76.42
2022-08-17T06:13:07.942Z,75.32
2022-08-17T06:16:01.762Z,73.96
2022-08-17T06:18:41.767Z,73.92
2022-08-17T06:21:13.157Z,72.62
2022-08-17T06:23:45.131Z,73.48
2022-08-17T06:26:17.487Z,72.69
2022-08-17T06:29:00.339Z,72.46
2022-08-17T06:31:31.371Z,71.47
2022-08-17T06:34:00.199Z,70.74
2022-08-17T06:36:40.128Z,71.33
2022-08-17T06:39:19.938Z,71.23
2022-08-17T06:42:05.567Z,70.61
2022-08-17T06:44:43.492Z,71.23
2022-08-17T06:47:29.380Z,69.69
2022-08-17T06:50:05.607Z,67.78
2022-08-17T06:52:46.671Z,67.02
2022-08-17T06:55:26.406Z,66.50
2022-08-17T06:57:59.002Z,66.59
2022-08-17T07:00:36.835Z,68.52
2022-08-17T07:03:14.810Z,66.95
2022-08-17T07:05:46.456Z,65.39
2022-08-17T07:08:13.126Z,63.46
2022-08-17T07:10:51.058Z,61.63
2022-08-17T07:13:38.114Z,62.37
2022-08-17T07:16:14.659Z,61.30
2022-08-17T07:18:41.805Z,62.19
2022-08-17T07:21:25.844Z,62.45
2022-08-17T07:24:31.377Z,61.79
2022-08-17T07:27:16.449Z,60.57
2022-08-17T07:30:10.347Z,59.86
2022-08-17T07:32:45.226Z,59.56
2022-08-17T07:35:37.900Z,61.08
2022-08-17T07:38:24.957Z,60.27
2022-08-17T07:41:02.624Z,59.14
2022-08-17T07:43:41.616Z,58.88
2022-08-17T07:46:41.692Z,58.37
2022-08-17T07:49:11.184Z,58.73
2022-08-17T07:51:53.677Z,63.60
2022-08-17T07:54:28.756Z,58.09
2022-08-17T07:57:03.442Z,57.70
2022-08-17T07:59:36.075Z,58.26
2022-08-17T08:02:20.134Z,57.28
2022-08-17T08:05:01.456Z,56.25
2022-08-17T08:08:00.683Z,56.25
2022-08-17T08:10:38.068Z,56.04
2022-08-17T08:13:10.700Z,56.26
2022-08-17T08:15:54.336Z,56.96
2022-08-17T08:18:53.787Z,55.57
2022-08-17T08:21:33.821Z,55.92
2022-08-17T08:24:00.339Z,55.36
2022-08-17T08:26:55.359Z,56.19
2022-08-17T08:29:35.654Z,56.10
2022-08-17T08:32:18.190Z,57.75
2022-08-17T08:35:04.327Z,55.79
2022-08-17T08:37:37.893Z,54.47
2022-08-17T08:40:34.847Z,52.60
2022-08-17T08:43:02.311Z,53.20
2022-08-17T08:45:38.431Z,53.74
2022-08-17T08:48:53.333Z,52.73
2022-08-17T08:51:35.820Z,51.46
2022-08-17T08:54:34.539Z,50.75
2022-08-17T08:57:26.845Z,51.59
2022-08-17T09:00:17.152Z,49.62
2022-08-17T09:03:08.398Z,51.63
2022-08-17T09:05:50.082Z,49.05
2022-08-17T09:08:32.317Z,48.84
2022-08-17T09:11:18.199Z,51.63
2022-08-17T09:13:55.517Z,47.80
2022-08-17T09:16:29.664Z,47.88
2022-08-17T09:19:08.474Z,48.32
2022-08-17T09:21:48.786Z,47.18
2022-08-17T09:24:43.406Z,48.38
2022-08-17T09:27:26.698Z,48.39
2022-08-17T09:29:59.026Z,47.72
2022-08-17T09:32:38.279Z,46.72
2022-08-17T09:35:15.983Z,45.35
2022-08-17T09:38:05.209Z,46.73
2022-08-17T09:40:34.536Z,45.25
2022-08-17T09:43:10.029Z,45.87
2022-08-17T09:45:50.559Z,44.14
2022-08-17T09:48:38.473Z,46.78
2022-08-17T09:51:15.274Z,45.14
2022-08-17T09:53:44.541Z,44.60
2022-08-17T09:56:36.398Z,44.03
2022-08-17T09:59:20.086Z,43.94
2022-08-17T10:01:58.705Z,44.34
2022-08-17T10:04:40.817Z,44.37
2022-08-17T10:07:15.401Z,44.34
2022-08-17T10:10:03.941Z,46.08
2022-08-17T10:12:53.182Z,44.25
2022-08-17T10:15:40.813Z,43.44
2022-08-17T10:18:17.635Z,45.67
2022-08-17T10:21:21.501Z,43.56
2022-08-17T10:24:15.855Z,45.71
2022-08-17T10:26:57.057Z,43.04
2022-08-17T10:29:49.639Z,43.38
2022-08-17T10:32:32.148Z,47.36
2022-08-17T10:35:01.713Z,42.83
2022-08-17T10:37:46.568Z,43.65
2022-08-17T10:40:30.369Z,43.08
2022-08-17T10:43:19.188Z,43.22
2022-08-17T10:46:09.531Z,43.42
2022-08-17T10:49:18.144Z,44.65
2022-08-17T10:51:52.841Z,44.59
2022-08-17T10:54:25.004Z,45.41
2022-08-17T10:56:54.170Z,42.98
2022-08-17T10:59:35.716Z,43.33
2022-08-17T11:02:12.256Z,43.44
2022-08-17T11:04:47.884Z,43.56
2022-08-17T11:07:32.815Z,45.22
2022-08-17T11:10:08.407Z,44.99
2022-08-17T11:12:54.239Z,44.95
2022-08-17T11:15:47.362Z,44.00
2022-08-17T11:18:41.802Z,43.15
2022-08-17T11:21:15.170Z,43.22
2022-08-17T11:24:06.049Z,44.89
2022-08-17T11:26:35.809Z,44.68
2022-08-17T11:29:08.884Z,45.97
2022-08-17T11:31:40.129Z,45.24
2022-08-17T11:34:21.895Z,45.33
2022-08-17T11:37:19.584Z,45.79
2022-08-17T11:40:20.634Z,45.91
2022-08-17T11:42:58.988Z,47.75
2022-08-17T11:45:50.006Z,48.88
2022-08-17T11:48:48.062Z,52.61
2022-08-17T11:51:36.201Z,56.79
2022-08-17T11:54:31.728Z,60.95
2022-08-17T11:56:54.886Z,70.67
2022-08-17T11:59:33.311Z,73.77
2022-08-17T12:02:02.604Z,76.35
2022-08-17T12:04:34.782Z,80.34
2022-08-17T12:07:17.689Z,83.46
2022-08-17T12:09:48.594Z,82.84
2022-08-17T12:12:22.802Z,87.36
2022-08-17T12:15:11.007Z,89.06
2022-08-17T12:17:40.837Z,85.82
2022-08-17T12:20:21.390Z,86.85
2022-08-17T12:23:01.045Z,87.93
2022-08-17T12:25:40.306Z,89.03
2022-08-17T12:28:22.861Z,90.07
2022-08-17T12:30:52.030Z,89.04
2022-08-17T12:33:25.547Z,92.16
2022-08-17T12:36:08.627Z,90.14
2022-08-17T12:38:37.893Z,91.25
2022-08-17T12:41:25.393Z,93.11
2022-08-17T12:44:03.924Z,94.85
2022-08-17T12:46:34.838Z,94.30
2022-08-17T12:49:30.054Z,91.06
2022-08-17T12:52:08.991Z,87.12
2022-08-17T12:54:47.563Z,91.66
2022-08-17T12:57:19.013Z,89.99
2022-08-17T12:59:50.520Z,91.10
2022-08-17T13:02:24.551Z,89.28
2022-08-17T13:04:51.346Z,88.78
2022-08-17T13:07:35.668Z,90.37
2022-08-17T13:10:03.997Z,96.24
2022-08-17T13:12:34.367Z,96.70
2022-08-17T13:15:01.536Z,83.22
2022-08-17T13:17:31.863Z,85.75
2022-08-17T13:19:58.929Z,86.47
2022-08-17T13:22:27.859Z,86.24
2022-08-17T13:24:58.310Z,91.49
2022-08-17T13:27:27.684Z,91.78
2022-08-17T13:30:00.479Z,84.74
2022-08-17T13:32:45.033Z,84.42
2022-08-17T13:35:40.578Z,84.23
2022-08-17T13:38:11.703Z,80.74
2022-08-17T13:40:52.230Z,80.87
2022-08-17T13:43:40.674Z,82.28
2022-08-17T13:46:11.561Z,85.33
2022-08-17T13:48:38.996Z,86.57
2022-08-17T13:51:14.158Z,79.93
2022-08-17T13:53:40.632Z,78.97
2022-08-17T13:56:37.249Z,77.97
2022-08-17T13:59:05.069Z,81.00
2022-08-17T14:01:36.088Z,79.36
2022-08-17T14:04:06.998Z,79.45
2022-08-17T14:06:52.915Z,78.84
2022-08-17T14:09:26.846Z,79.68
2022-08-17T14:11:55.535Z,80.96
2022-08-17T14:14:25.344Z,79.94
2022-08-17T14:16:53.758Z,78.73
2022-08-17T14:19:22.039Z,78.96
2022-08-17T14:21:49.699Z,78.55
2022-08-17T14:24:24.148Z,75.86
2022-08-17T14:26:52.950Z,75.16
2022-08-17T14:29:20.793Z,73.32
2022-08-17T14:31:53.287Z,77.60
2022-08-17T14:34:21.578Z,72.15
2022-08-17T14:36:48.873Z,69.23
2022-08-17T14:39:17.733Z,68.70
2022-08-17T14:41:44.670Z,63.91
2022-08-17T14:44:12.600Z,62.97
2022-08-17T14:46:40.892Z,64.75
2022-08-17T14:49:08.935Z,61.47
2022-08-17T14:51:43.580Z,58.65
2022-08-17T14:54:11.282Z,56.78
2022-08-17T14:56:38.603Z,56.83
2022-08-17T14:59:05.178Z,54.47
2022-08-17T15:01:31.890Z,52.22
2022-08-17T15:03:58.529Z,50.84
2022-08-17T15:06:25.024Z,53.60
2022-08-17T15:08:51.622Z,50.78
2022-08-17T15:11:18.316Z,46.58
2022-08-17T15:13:52.692Z,46.21
2022-08-17T15:16:20.405Z,48.36
2022-08-17T15:18:46.933Z,44.59
2022-08-17T15:21:14.842Z,43.29
2022-08-17T15:23:41.537Z,47.04
2022-08-17T15:26:10.797Z,42.77
2022-08-17T15:28:37.754Z,42.23
2022-08-17T15:31:05.690Z,44.97
2022-08-17T15:33:32.888Z,43.25
2022-08-17T15:36:02.874Z,44.57
2022-08-17T15:38:30.481Z,42.21
2022-08-17T15:40:58.384Z,42.29
2022-08-17T15:43:28.366Z,45.60
2022-08-17T15:46:18.634Z,42.99
2022-08-17T15:48:48.327Z,42.15
2022-08-17T15:51:27.433Z,42.23
2022-08-17T15:54:00.256Z,43.30
2022-08-17T15:56:31.682Z,43.13
2022-08-17T15:58:58.828Z,42.50
2022-08-17T16:01:57.406Z,42.66
2022-08-17T16:04:29.711Z,45.02
2022-08-17T16:06:57.911Z,44.96
2022-08-17T16:09:24.483Z,43.38
2022-08-17T16:11:55.332Z,43.63
2022-08-17T16:14:23.156Z,45.91
2022-08-17T16:16:51.049Z,46.76
2022-08-17T16:19:19.881Z,43.88
2022-08-17T16:21:46.499Z,44.04
2022-08-17T16:24:13.647Z,45.40
2022-08-17T16:26:42.202Z,44.03
2022-08-17T16:29:09.036Z,43.98
2022-08-17T16:31:38.790Z,46.35
2022-08-17T16:34:17.671Z,46.32
2022-08-17T16:36:55.636Z,44.93
2022-08-17T16:39:28.861Z,44.63
2022-08-17T16:41:56.550Z,44.13
2022-08-17T16:44:23.188Z,45.04
2022-08-17T16:46:50.345Z,45.31
2022-08-17T16:49:25.799Z,44.25
2022-08-17T16:52:06.343Z,44.46
2022-08-17T16:54:35.423Z,46.02
2022-08-17T16:57:04.874Z,46.44
2022-08-17T16:59:40.914Z,47.21
2022-08-17T17:02:11.085Z,48.03
2022-08-17T17:04:51.917Z,49.46
2022-08-17T17:07:40.236Z,51.91
2022-08-17T17:10:15.585Z,53.59
2022-08-17T17:13:02.871Z,54.17
2022-08-17T17:15:47.234Z,55.11
2022-08-17T17:18:15.821Z,57.58
2022-08-17T17:20:54.566Z,56.63
2022-08-17T17:23:46.084Z,58.53
2022-08-17T17:26:39.645Z,58.57
2022-08-17T17:29:46.535Z,59.02
2022-08-17T17:32:24.679Z,59.87
2022-08-17T17:34:59.531Z,61.06
2022-08-17T17:37:34.104Z,61.43
2022-08-17T17:40:12.466Z,60.53
2022-08-17T17:42:42.162Z,62.09
2022-08-17T17:45:25.827Z,63.00
2022-08-17T17:47:53.481Z,63.69
2022-08-17T17:50:26.535Z,63.04
2022-08-17T17:53:04.039Z,62.33
2022-08-17T17:55:47.130Z,62.69
2022-08-17T17:58:42.578Z,62.97
2022-08-17T18:01:27.669Z,63.48
2022-08-17T18:04:20.516Z,63.05
2022-08-17T18:07:18.793Z,62.86
2022-08-17T18:10:29.350Z,63.21
2022-08-17T18:13:13.229Z,64.60
2022-08-17T18:15:52.132Z,64.99
2022-08-17T18:18:33.083Z,63.96
2022-08-17T18:21:06.848Z,64.88
2022-08-17T18:23:34.126Z,66.11
2022-08-17T18:26:02.000Z,67.85
2022-08-17T18:28:28.472Z,69.94
2022-08-17T18:31:04.081Z,72.00
2022-08-17T18:33:30.627Z,73.32
2022-08-17T18:35:58.755Z,74.16
2022-08-17T18:38:33.849Z,73.98
2022-08-17T18:41:25.887Z,74.82
2022-08-17T18:44:06.436Z,75.14
2022-08-17T18:46:37.755Z,76.20
2022-08-17T18:49:26.179Z,77.16
2022-08-17T18:52:16.190Z,77.03
2022-08-17T18:55:13.758Z,76.65
2022-08-17T18:57:46.872Z,76.79
2022-08-17T19:00:13.691Z,78.03
2022-08-17T19:02:58.756Z,76.95
2022-08-17T19:05:27.795Z,76.67
2022-08-17T19:07:54.852Z,76.69
2022-08-17T19:10:28.791Z,78.22
2022-08-17T19:13:00.718Z,77.12
2022-08-17T19:15:35.506Z,76.94
2022-08-17T19:18:34.698Z,76.76
2022-08-17T19:21:20.502Z,78.30
2022-08-17T19:23:53.377Z,77.57
2022-08-17T19:26:55.382Z,77.28
2022-08-17T19:29:16.607Z,78.20
2022-08-17T19:31:46.325Z,78.29
2022-08-17T19:34:17.582Z,77.38
2022-08-17T19:37:07.529Z,77.60
2022-08-17T19:40:02.133Z,78.44
2022-08-17T19:42:41.187Z,79.64
2022-08-17T19:45:19.362Z,80.23
2022-08-17T19:48:21.064Z,80.47
2022-08-17T19:51:01.328Z,80.50
2022-08-17T19:54:04.758Z,80.15
2022-08-17T19:56:47.676Z,80.03
2022-08-17T19:59:52.170Z,80.25
2022-08-17T20:02:31.411Z,80.27
2022-08-17T20:05:00.088Z,81.12
2022-08-17T20:07:36.846Z,81.91
2022-08-17T20:10:11.048Z,81.49
2022-08-17T20:12:41.151Z,82.22
2022-08-17T20:15:38.950Z,82.17
2022-08-17T20:18:13.577Z,82.48
2022-08-17T20:20:55.949Z,82.07
2022-08-17T20:23:44.851Z,82.05
2022-08-17T20:26:34.341Z,82.68
2022-08-17T20:29:37.232Z,83.50
2022-08-17T20:32:17.984Z,83.15
2022-08-17T20:34:47.209Z,83.97
2022-08-17T20:37:13.608Z,84.23
2022-08-17T20:39:40.281Z,83.48
2022-08-17T20:42:22.565Z,84.16
2022-08-17T20:44:52.548Z,84.11
2022-08-17T20:47:27.475Z,83.13
2022-08-17T20:50:27.110Z,82.73
2022-08-17T20:52:57.959Z,83.79
2022-08-17T20:55:52.945Z,84.19
2022-08-17T20:58:23.190Z,84.62
2022-08-17T21:00:58.944Z,85.87
2022-08-17T21:03:32.253Z,86.75
2022-08-17T21:06:18.130Z,86.21
2022-08-17T21:09:18.861Z,86.72
2022-08-17T21:12:04.423Z,85.77
2022-08-17T21:14:40.913Z,84.96
2022-08-17T21:17:31.617Z,84.80
2022-08-17T21:20:27.418Z,85.44
2022-08-17T21:23:13.080Z,84.76
2022-08-17T21:25:57.892Z,84.25
2022-08-17T21:29:00.742Z,84.53
2022-08-17T21:31:40.011Z,84.83
2022-08-17T21:34:15.459Z,85.22
2022-08-17T21:36:43.844Z,85.05
2022-08-17T21:39:14.207Z,85.14
2022-08-17T21:41:52.694Z,85.08
2022-08-17T21:44:30.939Z,85.00
2022-08-17T21:47:13.890Z,85.19
2022-08-17T21:49:40.419Z,85.59
2022-08-17T21:52:07.465Z,85.74
2022-08-17T21:54:38.736Z,85.87
2022-08-17T21:57:14.809Z,85.97
2022-08-17T21:59:43.608Z,86.32
2022-08-17T22:02:22.646Z,87.83
2022-08-17T22:05:07.371Z,88.37
2022-08-17T22:07:53.071Z,89.61
2022-08-17T22:10:34.564Z,89.03
2022-08-17T22:13:16.881Z,90.64
2022-08-17T22:15:47.506Z,90.07
2022-08-17T22:18:22.900Z,91.16
2022-08-17T22:20:52.223Z,91.66
2022-08-17T22:24:00.690Z,93.27
2022-08-17T22:27:00.199Z,92.73
2022-08-17T22:29:45.473Z,91.93
2022-08-17T22:32:31.118Z,90.74
2022-08-17T22:35:16.279Z,91.04
2022-08-17T22:37:42.896Z,91.25
2022-08-17T22:40:09.522Z,91.30
2022-08-17T22:42:47.378Z,90.64
2022-08-17T22:45:14.243Z,90.83
2022-08-17T22:47:48.446Z,90.74
2022-08-17T22:50:25.578Z,90.43
2022-08-17T22:53:20.129Z,90.46
2022-08-17T22:56:13.757Z,90.18
2022-08-17T22:59:15.900Z,90.26
2022-08-17T23:01:45.404Z,92.96
2022-08-17T23:04:36.742Z,93.61
2022-08-17T23:07:03.428Z,95.14
2022-08-17T23:11:59.772Z,92.85
2022-08-17T23:14:31.648Z,92.33
2022-08-17T23:16:59.352Z,91.09
2022-08-17T23:19:27.284Z,90.67
2022-08-17T23:21:56.256Z,90.65
2022-08-17T23:24:26.924Z,91.64
2022-08-17T23:26:57.174Z,92.66
2022-08-17T23:29:24.831Z,92.11
2022-08-17T23:31:52.693Z,91.58
2022-08-17T23:34:19.569Z,92.38
2022-08-17T23:36:50.644Z,93.42
2022-08-17T23:39:24.697Z,94.43
2022-08-17T23:42:00.336Z,94.52
2022-08-17T23:44:28.773Z,95.16
2022-08-17T23:46:55.346Z,94.64
2022-08-17T23:49:23.454Z,93.18
2022-08-17T23:51:50.313Z,92.40
2022-08-17T23:54:28.763Z,93.46
2022-08-17T23:56:55.408Z,95.09
2022-08-17T23:59:23.116Z,96.22
